메인 페이지
METAR-TAF:

METAR-TAF

공항 :

Dalhart Municipal Airport

Dalhart, 텍사스, 미국

위도: 36-01-24N, 경도: 102-32-50W, 고도: 1216m

현재 날씨관측

예보는 1 시간 14분 전, 10:53시(UTC)에 발표되었습니다.
5kt
온도 -3°C
습도 80%
기압 1022 hPa
시정: 16.1km
맑음

METAR: KDHT 201053Z AUTO 26005KT 10SM CLR M03/M06 A3018 RMK AO2 SLP223 T10331061

시각: 06:07 (12:07 UTC)

예보

예보는 47분 전, 11:20시(UTC)에 발표되었습니다.
예보 대상 시간: 20일 12시부터 21일 12시까지 (UTC)
서남서6kt
시정: 10km
고도 25000ft 상공 구름 보통
20일 2300시부터 (UTC)
9kt
시정: 10km
고도 25000ft 상공 구름 많음
21일 0800시부터 (UTC)
남서9kt
시정: 10km
고도 25000ft 상공 흐림

TAF: KDHT 201120Z 2012/2112 25006KT P6SM SCT250 FM202300 18009KT P6SM BKN250 FM210800 22009KT P6SM OVC250

4,000개 이상의 공항 관측 자료 및 예보 (METAR 및 TAF 보고).

지도상에서 검색 가능한 기상관측소가 노란 점과 빨간 점으로 표시되어 있습니다.

기상관측소 명을 보려면 표시 위로 마우스를 이동하세요.

날씨 관측과 예보를 보려면 클릭하세요.

지도 변경 : 확대하려면 엑스 표시가 있는 녹색 버튼, 축소하려면 빼기 표시가 있는 녹색 버튼, 다음 페이지의 지도를 보려면 녹색 화살표를 클릭하세요.


METAR-TAF: